createdAt,value
2018-07-23T00:01:29.274Z,52.33
2018-07-23T00:04:11.058Z,54.83
2018-07-23T00:06:43.923Z,55.63
2018-07-23T00:09:18.275Z,51.10
2018-07-23T00:11:56.966Z,53.90
2018-07-23T00:14:26.562Z,54.93
2018-07-23T00:16:59.929Z,54.33
2018-07-23T00:19:28.654Z,54.70
2018-07-23T00:22:02.658Z,53.80
2018-07-23T00:24:31.418Z,52.23
2018-07-23T00:27:00.250Z,52.60
2018-07-23T00:29:29.130Z,56.33
2018-07-23T00:32:09.944Z,56.13
2018-07-23T00:34:42.770Z,51.97
2018-07-23T00:37:12.643Z,48.23
2018-07-23T00:39:41.454Z,46.70
2018-07-23T00:42:12.302Z,44.93
2018-07-23T00:44:41.065Z,45.87
2018-07-23T00:47:14.086Z,46.87
2018-07-23T00:49:47.178Z,50.67
2018-07-23T00:52:20.990Z,50.30
2018-07-23T00:55:09.046Z,49.70
2018-07-23T00:57:39.856Z,52.50
2018-07-23T01:00:14.717Z,53.50
2018-07-23T01:02:45.518Z,53.20
2018-07-23T01:05:19.217Z,53.27
2018-07-23T01:07:49.038Z,51.83
2018-07-23T01:10:19.857Z,53.37
2018-07-23T01:12:48.657Z,52.87
2018-07-23T01:15:17.670Z,54.23
2018-07-23T01:17:47.465Z,52.03
2018-07-23T01:20:27.953Z,51.27
2018-07-23T01:23:06.989Z,50.70
2018-07-23T01:25:35.845Z,48.80
2018-07-23T01:28:09.157Z,50.27
2018-07-23T01:30:38.941Z,48.47
2018-07-23T01:33:10.985Z,52.43
2018-07-23T01:35:40.734Z,51.27
2018-07-23T01:38:09.705Z,51.50
2018-07-23T01:40:42.607Z,51.17
2018-07-23T01:43:11.473Z,53.00
2018-07-23T01:45:41.297Z,52.10
2018-07-23T01:48:15.861Z,53.43
2018-07-23T01:50:45.741Z,54.77
2018-07-23T01:53:22.597Z,53.60
2018-07-23T01:56:08.864Z,55.37
2018-07-23T01:58:44.873Z,53.40
2018-07-23T02:01:14.725Z,56.47
2018-07-23T02:03:45.578Z,57.43
2018-07-23T02:06:16.378Z,55.13
2018-07-23T02:08:45.327Z,57.90
2018-07-23T02:11:15.174Z,57.60
2018-07-23T02:13:44.046Z,57.37
2018-07-23T02:16:12.830Z,56.30
2018-07-23T02:18:45.640Z,56.87
2018-07-23T02:21:14.529Z,57.03
2018-07-23T02:24:00.233Z,59.03
2018-07-23T02:26:32.113Z,60.87
2018-07-23T02:29:11.745Z,57.93
2018-07-23T02:31:40.550Z,63.10
2018-07-23T02:34:13.082Z,63.57
2018-07-23T02:36:51.625Z,59.73
2018-07-23T02:39:32.181Z,57.47
2018-07-23T02:42:02.990Z,51.00
2018-07-23T02:44:33.861Z,51.30
2018-07-23T02:47:15.431Z,60.30
2018-07-23T02:49:52.686Z,53.30
2018-07-23T02:52:25.354Z,56.27
2018-07-23T02:54:57.625Z,63.70
2018-07-23T02:57:32.781Z,66.23
2018-07-23T03:00:01.658Z,63.53
2018-07-23T03:02:34.946Z,60.43
2018-07-23T03:05:04.861Z,60.80
2018-07-23T03:07:35.745Z,66.63
2018-07-23T03:10:05.274Z,68.60
2018-07-23T03:12:34.082Z,72.63
2018-07-23T03:15:09.663Z,74.87
2018-07-23T03:17:43.700Z,74.20
2018-07-23T03:20:17.442Z,69.60
2018-07-23T03:22:46.241Z,64.37
2018-07-23T03:25:20.806Z,53.10
2018-07-23T03:27:52.725Z,54.43
2018-07-23T03:30:24.969Z,50.97
2018-07-23T03:32:54.765Z,51.67
2018-07-23T03:35:25.558Z,51.27
2018-07-23T03:37:57.522Z,50.03
2018-07-23T03:40:26.422Z,59.87
2018-07-23T03:42:55.353Z,56.03
2018-07-23T03:45:33.381Z,55.17
2018-07-23T03:48:13.605Z,55.67
2018-07-23T03:50:42.425Z,56.77
2018-07-23T03:53:18.305Z,55.43
2018-07-23T03:55:51.561Z,54.30
2018-07-23T03:58:20.366Z,54.50
2018-07-23T04:00:50.969Z,54.50
2018-07-23T04:03:20.738Z,53.93
2018-07-23T04:05:52.577Z,52.87
2018-07-23T04:08:22.369Z,57.13
2018-07-23T04:10:55.538Z,55.50
2018-07-23T04:13:27.750Z,58.70
2018-07-23T04:15:57.617Z,56.20
2018-07-23T04:18:28.502Z,56.63
2018-07-23T04:21:04.066Z,55.93
2018-07-23T04:23:36.690Z,61.43
2018-07-23T04:26:08.606Z,61.50
2018-07-23T04:28:48.030Z,60.70
2018-07-23T04:31:18.889Z,64.77
2018-07-23T04:33:48.823Z,64.67
2018-07-23T04:36:19.717Z,67.17
2018-07-23T04:38:56.793Z,61.83
2018-07-23T04:41:31.442Z,69.57
2018-07-23T04:44:00.286Z,73.30
2018-07-23T04:46:32.574Z,82.17
2018-07-23T04:49:06.349Z,79.10
2018-07-23T04:51:42.734Z,81.10
2018-07-23T04:54:16.249Z,74.43
2018-07-23T04:56:46.099Z,77.53
2018-07-23T04:59:19.022Z,78.77
2018-07-23T05:01:54.277Z,76.27
2018-07-23T05:04:23.157Z,76.20
2018-07-23T05:06:58.826Z,70.10
2018-07-23T05:09:28.849Z,72.17
2018-07-23T05:11:57.721Z,73.47
2018-07-23T05:14:32.369Z,68.30
2018-07-23T05:17:06.189Z,65.63
2018-07-23T05:19:42.646Z,67.97
2018-07-23T05:22:17.665Z,60.80
2018-07-23T05:24:57.543Z,58.47
2018-07-23T05:27:31.697Z,59.00
2018-07-23T05:30:00.557Z,56.60
2018-07-23T05:32:31.324Z,53.10
2018-07-23T05:35:08.253Z,48.57
2018-07-23T05:37:39.193Z,52.83
2018-07-23T05:40:12.885Z,48.37
2018-07-23T05:42:41.749Z,45.40
2018-07-23T05:45:11.596Z,45.37
2018-07-23T05:47:41.376Z,43.23
2018-07-23T05:50:10.369Z,43.63
2018-07-23T05:52:40.161Z,39.50
2018-07-23T05:55:09.821Z,36.93
2018-07-23T05:57:39.691Z,36.53
2018-07-23T06:00:09.437Z,33.57
2018-07-23T06:02:39.225Z,37.93
2018-07-23T06:05:09.801Z,35.37
2018-07-23T06:07:42.306Z,34.90
2018-07-23T06:10:14.981Z,33.97
2018-07-23T06:12:44.890Z,33.63
2018-07-23T06:15:13.637Z,34.17
2018-07-23T06:17:46.613Z,34.63
2018-07-23T06:20:15.485Z,32.87
2018-07-23T06:22:45.285Z,31.80
2018-07-23T06:25:15.092Z,30.93
2018-07-23T06:27:44.938Z,30.60
2018-07-23T06:30:15.931Z,29.97
2018-07-23T06:32:44.847Z,28.77
2018-07-23T06:35:14.653Z,25.77
2018-07-23T06:37:45.476Z,25.67
2018-07-23T06:40:17.532Z,22.83
2018-07-23T06:45:15.717Z,22.97
2018-07-23T06:47:46.536Z,25.00
2018-07-23T06:50:16.261Z,23.23
2018-07-23T06:52:56.174Z,22.03
2018-07-23T06:55:30.877Z,21.23
2018-07-23T06:57:59.676Z,20.03
2018-07-23T07:00:30.498Z,18.47
2018-07-23T07:02:59.352Z,17.70
2018-07-23T07:05:31.819Z,17.30
2018-07-23T07:08:01.580Z,19.10
2018-07-23T07:10:31.368Z,16.63
2018-07-23T07:13:07.028Z,18.10
2018-07-23T07:15:54.322Z,14.70
2018-07-23T07:18:27.356Z,15.70
2018-07-23T07:20:58.110Z,14.73
2018-07-23T07:23:27.960Z,16.63
2018-07-23T07:26:00.296Z,17.53
2018-07-23T07:28:32.069Z,15.70
2018-07-23T07:31:00.928Z,14.93
2018-07-23T07:33:31.700Z,14.90
2018-07-23T07:36:06.981Z,14.60
2018-07-23T07:38:35.745Z,14.70
2018-07-23T07:41:17.784Z,13.53
2018-07-23T07:43:48.600Z,11.77
2018-07-23T07:46:21.371Z,12.73
2018-07-23T07:49:07.097Z,13.30
2018-07-23T07:54:30.711Z,13.83
2018-07-23T07:56:59.509Z,12.80
2018-07-23T07:59:29.297Z,12.67
2018-07-23T08:02:15.809Z,12.67
2018-07-23T08:04:44.557Z,12.43
2018-07-23T08:07:19.186Z,13.60
2018-07-23T08:09:55.513Z,11.97
2018-07-23T08:12:25.294Z,10.30
2018-07-23T08:14:54.081Z,11.80
2018-07-23T08:17:24.909Z,11.40
2018-07-23T08:20:14.333Z,12.97
2018-07-23T08:22:47.821Z,11.57
2018-07-23T08:25:29.933Z,11.93
2018-07-23T08:27:58.789Z,12.40
2018-07-23T08:30:28.601Z,10.70
2018-07-23T08:32:59.397Z,12.13
2018-07-23T08:35:31.129Z,13.33
2018-07-23T08:38:00.866Z,13.83
2018-07-23T08:40:30.796Z,13.83
2018-07-23T08:43:00.617Z,14.17
2018-07-23T08:45:30.356Z,12.30
2018-07-23T08:48:06.809Z,12.43
2018-07-23T08:50:42.596Z,11.80
2018-07-23T08:53:16.048Z,11.63
2018-07-23T08:55:48.006Z,11.77
2018-07-23T08:58:17.728Z,10.93
2018-07-23T09:00:49.906Z,9.17
2018-07-23T09:03:19.708Z,10.23
2018-07-23T09:05:50.637Z,10.57
2018-07-23T09:08:19.406Z,10.40
2018-07-23T09:10:52.933Z,9.10
2018-07-23T09:13:24.869Z,8.90
2018-07-23T09:15:54.574Z,8.37
2018-07-23T09:18:30.090Z,8.67
2018-07-23T09:21:03.353Z,8.03
2018-07-23T09:23:32.245Z,10.07
2018-07-23T09:26:00.997Z,11.00
2018-07-23T09:28:30.801Z,10.50
2018-07-23T09:31:00.630Z,9.07
2018-07-23T09:33:30.321Z,9.20
2018-07-23T09:36:00.197Z,8.60
2018-07-23T09:38:29.941Z,9.40
2018-07-23T09:41:07.057Z,8.20
2018-07-23T09:43:46.725Z,7.93
2018-07-23T09:46:15.597Z,8.70
2018-07-23T09:48:44.393Z,8.37
2018-07-23T09:51:14.182Z,10.27
2018-07-23T09:56:42.437Z,8.53
2018-07-23T09:59:13.337Z,7.90
2018-07-23T10:01:47.756Z,8.23
2018-07-23T10:04:28.017Z,8.40
2018-07-23T10:06:58.724Z,9.07
2018-07-23T10:09:27.492Z,10.13
2018-07-23T10:11:56.301Z,10.33
2018-07-23T10:14:30.217Z,10.60
2018-07-23T10:17:02.805Z,9.20
2018-07-23T10:19:31.544Z,9.00
2018-07-23T10:22:02.428Z,9.10
2018-07-23T10:24:31.172Z,9.20
2018-07-23T10:27:04.109Z,10.07
2018-07-23T10:29:40.972Z,8.53
2018-07-23T10:32:10.992Z,8.47
2018-07-23T10:34:43.444Z,9.20
2018-07-23T10:37:12.164Z,9.27
2018-07-23T10:39:41.968Z,8.93
2018-07-23T10:42:10.718Z,10.20
2018-07-23T10:44:45.073Z,9.33
2018-07-23T10:47:16.952Z,9.37
2018-07-23T10:49:46.584Z,10.93
2018-07-23T10:52:15.405Z,8.93
2018-07-23T10:54:45.200Z,9.90
2018-07-23T11:00:13.657Z,10.67
2018-07-23T11:02:44.464Z,10.27
2018-07-23T11:05:13.008Z,10.83
2018-07-23T11:07:41.704Z,10.00
2018-07-23T11:10:20.360Z,8.60
2018-07-23T11:12:50.152Z,9.27
2018-07-23T11:15:23.536Z,10.73
2018-07-23T11:17:54.376Z,10.27
2018-07-23T11:20:25.196Z,9.73
2018-07-23T11:22:53.984Z,8.70
2018-07-23T11:25:40.899Z,10.03
2018-07-23T11:27:59.264Z,10.27
2018-07-23T11:30:30.004Z,10.53
2018-07-23T11:33:07.097Z,8.97
2018-07-23T11:35:41.656Z,8.83
2018-07-23T11:38:15.066Z,8.60
2018-07-23T11:40:49.045Z,9.60
2018-07-23T11:43:18.824Z,10.47
2018-07-23T11:46:06.649Z,9.93
2018-07-23T11:48:37.384Z,10.83
2018-07-23T11:51:12.281Z,9.70
2018-07-23T11:53:59.792Z,10.23
2018-07-23T11:56:28.412Z,11.10
2018-07-23T11:58:57.189Z,10.70
2018-07-23T12:01:25.977Z,10.47
2018-07-23T12:03:55.849Z,10.83
2018-07-23T12:06:25.673Z,11.00
2018-07-23T12:08:54.437Z,13.13
2018-07-23T12:11:28.021Z,10.90
2018-07-23T12:13:57.857Z,12.40
2018-07-23T12:16:27.637Z,10.80
2018-07-23T12:18:58.501Z,11.20
2018-07-23T12:21:27.413Z,9.73
2018-07-23T12:24:00.153Z,10.03
2018-07-23T12:26:29.957Z,9.23
2018-07-23T12:28:58.674Z,12.93
2018-07-23T12:31:29.397Z,10.50
2018-07-23T12:33:58.289Z,8.27
2018-07-23T12:36:31.066Z,8.83
2018-07-23T12:38:59.628Z,8.70
2018-07-23T12:41:29.288Z,7.30
2018-07-23T12:44:10.898Z,8.23
2018-07-23T12:46:39.840Z,8.10
2018-07-23T12:49:24.953Z,8.57
2018-07-23T12:51:53.801Z,8.40
2018-07-23T12:54:22.669Z,7.83
2018-07-23T12:56:55.548Z,8.90
2018-07-23T12:59:29.426Z,8.30
2018-07-23T13:01:58.188Z,8.40
2018-07-23T13:04:27.984Z,8.23
2018-07-23T13:06:56.840Z,7.20
2018-07-23T13:09:29.900Z,7.00
2018-07-23T13:12:08.260Z,7.47
2018-07-23T13:14:37.116Z,8.60
2018-07-23T13:17:05.888Z,7.93
2018-07-23T13:19:35.712Z,8.13
2018-07-23T13:22:08.021Z,7.40
2018-07-23T13:24:47.140Z,6.60
2018-07-23T13:27:21.984Z,7.17
2018-07-23T13:29:56.808Z,8.40
2018-07-23T13:32:30.089Z,6.83
2018-07-23T13:35:02.339Z,7.40
2018-07-23T13:37:34.542Z,8.23
2018-07-23T13:40:04.348Z,8.40
2018-07-23T13:42:33.108Z,7.20
2018-07-23T13:45:02.848Z,8.70
2018-07-23T13:47:31.707Z,8.60
2018-07-23T13:50:19.272Z,8.60
2018-07-23T13:52:49.060Z,8.43
2018-07-23T13:55:21.048Z,7.43
2018-07-23T13:57:49.807Z,8.50
2018-07-23T14:00:22.636Z,8.07
2018-07-23T14:02:52.515Z,7.30
2018-07-23T14:05:27.607Z,7.97
2018-07-23T14:07:56.403Z,7.60
2018-07-23T14:10:28.947Z,8.20
2018-07-23T14:13:07.455Z,8.20
2018-07-23T14:15:40.764Z,7.43
2018-07-23T14:18:11.536Z,7.80
2018-07-23T14:20:40.376Z,8.27
2018-07-23T14:23:17.332Z,7.50
2018-07-23T14:25:51.856Z,8.23
2018-07-23T14:28:22.351Z,6.70
2018-07-23T14:30:51.008Z,7.03
2018-07-23T14:33:27.136Z,7.03
2018-07-23T14:35:56.051Z,7.27
2018-07-23T14:38:25.072Z,6.20
2018-07-23T14:40:57.268Z,6.23
2018-07-23T14:43:36.116Z,6.60
2018-07-23T14:46:26.091Z,5.80
2018-07-23T14:48:54.940Z,7.17
2018-07-23T14:51:23.695Z,6.53
2018-07-23T14:53:53.431Z,7.10
2018-07-23T14:56:28.615Z,6.53
2018-07-23T14:59:11.979Z,8.07
2018-07-23T15:01:43.851Z,7.27
2018-07-23T15:04:13.664Z,6.70
2018-07-23T15:06:43.403Z,6.80
2018-07-23T15:09:15.467Z,6.07
2018-07-23T15:11:46.219Z,6.27
2018-07-23T15:14:24.388Z,5.97
2018-07-23T15:16:54.141Z,5.97
2018-07-23T15:19:28.796Z,6.17
2018-07-23T15:21:57.686Z,6.50
2018-07-23T15:24:35.839Z,6.50
2018-07-23T15:27:10.356Z,6.87
2018-07-23T15:29:48.767Z,6.87
2018-07-23T15:32:28.132Z,5.67
2018-07-23T15:35:02.505Z,6.37
2018-07-23T15:37:31.311Z,7.53
2018-07-23T15:40:06.884Z,6.73
2018-07-23T15:42:39.115Z,10.43
2018-07-23T15:45:27.078Z,6.93
2018-07-23T15:47:55.832Z,7.60
2018-07-23T15:50:28.492Z,8.07
2018-07-23T15:53:12.200Z,8.17
2018-07-23T15:55:41.093Z,8.20
2018-07-23T15:58:09.945Z,8.20
2018-07-23T16:01:03.663Z,8.00
2018-07-23T16:03:38.400Z,7.77
2018-07-23T16:06:07.257Z,8.97
2018-07-23T16:08:42.140Z,8.63
2018-07-23T16:11:11.804Z,8.17
2018-07-23T16:13:52.928Z,7.60
2018-07-23T16:16:23.763Z,7.90
2018-07-23T16:18:52.483Z,7.87
2018-07-23T16:21:21.252Z,7.70
2018-07-23T16:24:01.124Z,7.80
2018-07-23T16:26:29.900Z,8.47
2018-07-23T16:29:18.603Z,8.30
2018-07-23T16:31:49.347Z,7.97
2018-07-23T16:34:27.755Z,8.13
2018-07-23T16:36:58.823Z,7.70
2018-07-23T16:39:35.455Z,8.83
2018-07-23T16:42:09.907Z,11.30
2018-07-23T16:44:39.679Z,8.93
2018-07-23T16:47:18.094Z,8.80
2018-07-23T16:52:44.015Z,8.57
2018-07-23T16:55:27.564Z,8.90
2018-07-23T16:57:56.428Z,8.77
2018-07-23T17:00:25.191Z,12.97
2018-07-23T17:02:54.003Z,9.80
2018-07-23T17:05:29.292Z,9.33
2018-07-23T17:08:01.611Z,9.70
2018-07-23T17:10:33.576Z,8.97
2018-07-23T17:13:07.111Z,9.77
2018-07-23T17:15:37.359Z,8.73
2018-07-23T17:18:05.730Z,9.40
2018-07-23T17:20:37.799Z,9.50
2018-07-23T17:23:09.819Z,9.10
2018-07-23T17:25:38.571Z,9.80
2018-07-23T17:28:08.331Z,9.53
2018-07-23T17:30:37.079Z,8.90
2018-07-23T17:33:06.815Z,9.40
2018-07-23T17:35:35.607Z,8.77
2018-07-23T17:38:04.380Z,9.57
2018-07-23T17:40:38.247Z,9.10
2018-07-23T17:43:12.491Z,10.17
2018-07-23T17:45:44.972Z,9.27
2018-07-23T17:48:17.535Z,9.87
2018-07-23T17:50:56.742Z,9.20
2018-07-23T17:53:25.563Z,9.77
2018-07-23T17:56:00.467Z,9.50
2018-07-23T17:58:36.273Z,9.87
2018-07-23T18:01:07.086Z,9.37
2018-07-23T18:03:36.901Z,8.83
2018-07-23T18:06:06.835Z,10.27
2018-07-23T18:08:35.690Z,9.27
2018-07-23T18:11:08.283Z,9.57
2018-07-23T18:13:38.083Z,9.47
2018-07-23T18:16:08.839Z,10.20
2018-07-23T18:18:37.659Z,9.63
2018-07-23T18:21:06.619Z,11.20
2018-07-23T18:23:39.319Z,10.00
2018-07-23T18:26:12.079Z,10.33
2018-07-23T18:28:54.036Z,11.10
2018-07-23T18:31:26.215Z,10.37
2018-07-23T18:33:59.267Z,11.47
2018-07-23T18:36:32.051Z,12.30
2018-07-23T18:39:02.982Z,12.47
2018-07-23T18:41:33.787Z,12.60
2018-07-23T18:44:02.679Z,11.93
2018-07-23T18:46:35.111Z,11.97
2018-07-23T18:49:54.860Z,13.00
2018-07-23T18:52:28.311Z,13.30
2018-07-23T18:55:04.076Z,13.97
2018-07-23T18:57:33.791Z,13.60
2018-07-23T19:00:02.744Z,14.33
2018-07-23T19:02:31.543Z,15.27
2018-07-23T19:05:12.975Z,16.00
2018-07-23T19:07:49.419Z,14.90
2018-07-23T19:10:18.886Z,14.83
2018-07-23T19:12:48.611Z,15.57
2018-07-23T19:15:18.415Z,17.63
2018-07-23T19:17:48.235Z,15.20
2018-07-23T19:20:17.081Z,16.73
2018-07-23T19:22:47.881Z,16.47
2018-07-23T19:25:18.703Z,16.00
2018-07-23T19:27:47.479Z,17.37
2018-07-23T19:30:22.628Z,16.47
2018-07-23T19:32:52.424Z,17.27
2018-07-23T19:35:22.328Z,18.40
2018-07-23T19:37:54.948Z,18.80
2018-07-23T19:40:23.843Z,17.47
2018-07-23T19:42:53.687Z,17.17
2018-07-23T19:45:24.467Z,17.83
2018-07-23T19:47:54.202Z,22.20
2018-07-23T19:50:22.806Z,19.33
2018-07-23T19:52:57.751Z,19.27
2018-07-23T19:55:27.619Z,20.20
2018-07-23T19:57:56.599Z,21.07
2018-07-23T20:00:28.807Z,20.27
2018-07-23T20:02:57.663Z,21.40
2018-07-23T20:05:26.563Z,21.40
2018-07-23T20:07:55.315Z,20.70
2018-07-23T20:10:27.207Z,20.40
2018-07-23T20:12:56.875Z,21.47
2018-07-23T20:15:29.824Z,22.70
2018-07-23T20:18:03.939Z,21.90
2018-07-23T20:20:43.918Z,21.87
2018-07-23T20:23:14.687Z,21.97
2018-07-23T20:25:44.499Z,21.83
2018-07-23T20:28:32.466Z,21.60
2018-07-23T20:31:09.363Z,23.00
2018-07-23T20:33:39.115Z,22.60
2018-07-23T20:36:13.799Z,22.60
2018-07-23T20:38:44.564Z,23.13
2018-07-23T20:41:14.411Z,23.07
2018-07-23T20:43:46.910Z,22.50
2018-07-23T20:46:16.707Z,24.30
2018-07-23T20:48:45.528Z,22.43
2018-07-23T20:51:27.256Z,23.40
2018-07-23T20:53:56.067Z,23.00
2018-07-23T20:56:24.963Z,22.13
2018-07-23T20:58:57.154Z,23.03
2018-07-23T21:01:26.007Z,23.20
2018-07-23T21:03:54.837Z,23.97
2018-07-23T21:06:25.686Z,23.27
2018-07-23T21:08:55.450Z,23.10
2018-07-23T21:11:24.328Z,23.10
2018-07-23T21:14:02.891Z,23.30
2018-07-23T21:16:38.755Z,22.77
2018-07-23T21:19:08.638Z,22.80
2018-07-23T21:21:39.410Z,22.83
2018-07-23T21:24:08.251Z,24.23
2018-07-23T21:26:38.064Z,23.67
2018-07-23T21:29:10.534Z,24.43
2018-07-23T21:31:40.366Z,23.43
2018-07-23T21:34:19.686Z,25.40
2018-07-23T21:36:58.858Z,23.50
2018-07-23T21:39:29.658Z,25.77
2018-07-23T21:41:58.507Z,25.20
2018-07-23T21:44:32.075Z,23.57
2018-07-23T21:47:00.950Z,24.33
2018-07-23T21:49:35.775Z,24.17
2018-07-23T21:52:20.785Z,26.00
2018-07-23T21:54:51.658Z,24.43
2018-07-23T21:57:21.498Z,27.30
2018-07-23T21:59:50.272Z,23.87
2018-07-23T22:02:19.159Z,26.23
2018-07-23T22:04:51.307Z,24.67
2018-07-23T22:07:21.119Z,26.10
2018-07-23T22:12:38.991Z,28.07
2018-07-23T22:15:11.823Z,28.13
2018-07-23T22:17:41.567Z,25.80
2018-07-23T22:20:18.678Z,25.77
2018-07-23T22:22:50.984Z,26.20
2018-07-23T22:25:20.842Z,24.70
2018-07-23T22:27:50.622Z,23.40
2018-07-23T22:30:20.552Z,26.13
2018-07-23T22:32:53.258Z,24.47
2018-07-23T22:35:24.075Z,25.10
2018-07-23T22:38:06.898Z,26.17
2018-07-23T22:40:48.343Z,25.63
2018-07-23T22:43:22.558Z,25.23
2018-07-23T22:45:56.516Z,25.80
2018-07-23T22:48:26.279Z,29.10
2018-07-23T22:51:02.798Z,25.00
2018-07-23T22:53:32.554Z,24.70
2018-07-23T22:58:55.854Z,25.80
2018-07-23T23:01:24.566Z,27.30
2018-07-23T23:03:53.418Z,27.57
2018-07-23T23:06:27.446Z,29.10
2018-07-23T23:08:56.062Z,27.80
2018-07-23T23:11:37.395Z,29.33
2018-07-23T23:14:09.486Z,26.87
2018-07-23T23:16:38.394Z,28.57
2018-07-23T23:19:07.943Z,27.30
2018-07-23T23:21:42.282Z,27.80
2018-07-23T23:24:17.539Z,31.97
2018-07-23T23:26:56.473Z,31.00
2018-07-23T23:29:26.274Z,27.77
2018-07-23T23:31:56.062Z,28.40
2018-07-23T23:34:25.878Z,27.80
2018-07-23T23:36:55.699Z,29.23
2018-07-23T23:39:30.318Z,28.53
2018-07-23T23:42:03.502Z,30.10
2018-07-23T23:44:35.487Z,29.27
2018-07-23T23:47:10.827Z,29.77
2018-07-23T23:49:43.598Z,28.63
2018-07-23T23:52:13.190Z,28.93
2018-07-23T23:54:47.658Z,29.37
2018-07-23T23:57:16.528Z,28.87
